createdAt,value
2022-12-01T00:04:51.008Z,0.2
2022-12-01T00:09:51.016Z,0.2
2022-12-01T00:14:50.939Z,0.3
2022-12-01T00:19:51.107Z,0.1
2022-12-01T00:24:50.956Z,0.2
2022-12-01T00:29:51.074Z,0.2
2022-12-01T00:34:50.993Z,0.2
2022-12-01T00:39:51.165Z,0.1
2022-12-01T00:44:51.051Z,0.2
2022-12-01T00:49:51.125Z,0.2
2022-12-01T00:54:50.915Z,0.2
2022-12-01T00:59:51.073Z,0.2
2022-12-01T01:04:50.999Z,0.1
2022-12-01T01:09:51.097Z,0.2
2022-12-01T01:14:51.109Z,0.3
2022-12-01T01:19:51.744Z,0.2
2022-12-01T01:24:51.201Z,0.2
2022-12-01T01:29:51.110Z,0.1
2022-12-01T01:34:50.968Z,0.3
2022-12-01T01:39:51.156Z,0.2
2022-12-01T01:44:50.966Z,0.2
2022-12-01T01:49:51.129Z,0.2
2022-12-01T01:54:50.936Z,0.2
2022-12-01T01:59:51.308Z,0.1
2022-12-01T02:14:51.039Z,0.2
2022-12-01T02:19:51.150Z,0.1
2022-12-01T02:24:50.974Z,0.2
2022-12-01T02:29:51.159Z,0.2
2022-12-01T02:34:50.937Z,0.2
2022-12-01T02:39:51.089Z,0.1
2022-12-01T02:44:50.946Z,0.2
2022-12-01T02:49:51.144Z,0.1
2022-12-01T02:54:50.944Z,0.2
2022-12-01T02:59:50.999Z,0.2
2022-12-01T03:04:51.133Z,0.1
2022-12-01T03:09:51.160Z,0.2
2022-12-01T03:14:51.096Z,0.2
2022-12-01T03:19:51.281Z,0.2
2022-12-01T03:24:50.980Z,0.1
2022-12-01T03:29:51.238Z,0.2
2022-12-01T03:34:50.994Z,0.2
2022-12-01T03:39:53.694Z,0.3
2022-12-01T03:44:50.983Z,0.2
2022-12-01T03:49:51.185Z,0.2
2022-12-01T03:54:51.033Z,0.2
2022-12-01T03:59:51.254Z,0.2
2022-12-01T04:04:51.334Z,0.1
2022-12-01T04:09:51.246Z,0.1
2022-12-01T04:14:51.041Z,0.1
2022-12-01T04:19:51.180Z,0.2
2022-12-01T04:24:51.465Z,0.2
2022-12-01T04:29:51.299Z,0.2
2022-12-01T04:34:50.989Z,0.2
2022-12-01T04:39:51.214Z,0.2
2022-12-01T04:44:50.987Z,0.2
2022-12-01T04:49:51.279Z,0.2
2022-12-01T04:54:50.968Z,0.2
2022-12-01T04:59:51.161Z,0.3
2022-12-01T05:04:50.953Z,0.2
2022-12-01T05:09:51.663Z,0.2
2022-12-01T05:14:51.080Z,0.1
2022-12-01T05:19:51.254Z,0.3
2022-12-01T05:24:50.976Z,0.2
2022-12-01T05:29:51.290Z,0.2
2022-12-01T05:34:51.132Z,0.2
2022-12-01T05:39:51.199Z,0.2
2022-12-01T05:44:50.976Z,0.2
2022-12-01T05:49:51.284Z,0.2
2022-12-01T05:54:51.012Z,0.2
2022-12-01T05:59:51.244Z,0.2
2022-12-01T06:04:50.982Z,0.1
2022-12-01T06:09:51.201Z,0.1
2022-12-01T06:14:50.984Z,0.1
2022-12-01T06:19:51.300Z,0.1
2022-12-01T06:24:50.974Z,0.2
2022-12-01T06:29:51.144Z,0.2
2022-12-01T06:34:51.094Z,0.2
2022-12-01T06:39:51.103Z,0.2
2022-12-01T06:44:50.961Z,0.2
2022-12-01T06:49:51.495Z,0.3
2022-12-01T06:54:51.044Z,0.3
2022-12-01T06:59:51.476Z,0.3
2022-12-01T07:04:51.166Z,0.3
2022-12-01T07:09:51.209Z,0.3
2022-12-01T07:14:51.102Z,0.3
2022-12-01T07:19:51.345Z,0.4
2022-12-01T07:24:51.026Z,0.4
2022-12-01T07:29:51.286Z,0.5
2022-12-01T07:34:51.000Z,0.5
2022-12-01T07:39:51.166Z,0.6
2022-12-01T07:44:51.018Z,0.6
2022-12-01T07:49:51.575Z,0.8
2022-12-01T07:54:51.009Z,0.8
2022-12-01T07:59:51.350Z,0.9
2022-12-01T08:04:51.001Z,0.1
2022-12-01T08:09:51.221Z,0.1
2022-12-01T08:14:51.063Z,0.11
2022-12-01T08:19:51.364Z,0.11
2022-12-01T08:24:51.001Z,0.12
2022-12-01T08:29:51.244Z,0.13
2022-12-01T08:34:54.245Z,0.15
2022-12-01T08:39:51.160Z,0.17
2022-12-01T08:44:51.071Z,0.22
2022-12-01T08:49:51.094Z,0.23
2022-12-01T08:54:51.029Z,0.21
2022-12-01T08:59:51.433Z,0.23
2022-12-01T09:04:51.021Z,0.23
2022-12-01T09:09:51.230Z,0.25
2022-12-01T09:14:51.066Z,0.32
2022-12-01T09:19:51.359Z,0.35
2022-12-01T09:24:51.003Z,0.34
2022-12-01T09:29:51.176Z,0.33
2022-12-01T09:34:51.004Z,0.36
2022-12-01T09:39:51.319Z,0.45
2022-12-01T09:44:51.018Z,0.49
2022-12-01T09:49:51.268Z,0.51
2022-12-01T09:54:51.039Z,0.51
2022-12-01T09:59:51.275Z,0.53
2022-12-01T10:04:51.000Z,0.56
2022-12-01T10:09:51.262Z,0.62
2022-12-01T10:14:51.125Z,0.73
2022-12-01T10:19:51.429Z,0.54
2022-12-01T10:24:51.013Z,0.5
2022-12-01T10:29:51.364Z,0.45
2022-12-01T10:34:51.030Z,0.51
2022-12-01T10:39:51.449Z,0.54
2022-12-01T10:44:51.031Z,0.56
2022-12-01T10:49:51.124Z,0.51
2022-12-01T10:54:51.060Z,0.48
2022-12-01T10:59:51.135Z,0.42
2022-12-01T11:04:51.068Z,0.41
2022-12-01T11:09:51.144Z,0.5
2022-12-01T11:14:51.041Z,0.54
2022-12-01T11:19:51.300Z,0.4
2022-12-01T11:24:51.106Z,0.44
2022-12-01T11:29:51.289Z,0.41
2022-12-01T11:34:51.221Z,0.3
2022-12-01T11:39:51.525Z,0.33
2022-12-01T11:44:53.043Z,0.39
2022-12-01T11:49:51.089Z,0.41
2022-12-01T11:54:51.011Z,0.4
2022-12-01T11:59:51.394Z,0.36
2022-12-01T12:04:51.045Z,0.32
2022-12-01T12:09:51.426Z,0.27
2022-12-01T12:14:51.132Z,0.3
2022-12-01T12:20:08.009Z,0.25
2022-12-01T12:24:51.047Z,0.27
2022-12-01T12:29:51.332Z,0.24
2022-12-01T12:34:51.024Z,0.18
2022-12-01T12:39:51.354Z,0.18
2022-12-01T12:44:51.046Z,0.17
2022-12-01T12:49:51.335Z,0.17
2022-12-01T12:54:51.014Z,0.16
2022-12-01T12:59:51.217Z,0.15
2022-12-01T13:04:51.052Z,0.12
2022-12-01T13:09:51.280Z,0.1
2022-12-01T13:14:51.930Z,0.12
2022-12-01T13:19:51.236Z,0.9
2022-12-01T13:24:51.011Z,0.8
2022-12-01T13:29:51.196Z,0.1
2022-12-01T13:34:51.025Z,0.1
2022-12-01T13:39:51.238Z,0.1
2022-12-01T13:44:51.288Z,0.1
2022-12-01T13:49:51.189Z,0.9
2022-12-01T13:54:51.073Z,0.1
2022-12-01T13:59:51.298Z,0.1
2022-12-01T14:04:51.425Z,0.1
2022-12-01T14:09:51.058Z,0.9
2022-12-01T14:14:51.213Z,0.7
2022-12-01T14:19:51.183Z,0.7
2022-12-01T14:24:51.368Z,0.7
2022-12-01T14:29:51.057Z,0.6
2022-12-01T14:34:51.338Z,0.5
2022-12-01T14:39:51.031Z,0.5
2022-12-01T14:44:51.330Z,0.4
2022-12-01T14:49:51.031Z,0.4
2022-12-01T14:54:51.207Z,0.4
2022-12-01T14:59:51.101Z,0.3
2022-12-01T15:04:51.173Z,0.3
2022-12-01T15:09:51.059Z,0.2
2022-12-01T15:14:51.609Z,0.2
2022-12-01T15:19:51.259Z,0.2
2022-12-01T15:24:51.232Z,0.2
2022-12-01T15:29:51.363Z,0.2
2022-12-01T15:34:51.287Z,0.1
2022-12-01T15:39:51.049Z,0.1
2022-12-01T15:44:55.827Z,0.3
2022-12-01T15:49:51.138Z,0.1
2022-12-01T15:54:51.366Z,0.2
2022-12-01T15:59:51.044Z,0.2
2022-12-01T16:04:51.277Z,0.2
2022-12-01T16:09:51.061Z,0.3
2022-12-01T16:14:51.362Z,0.1
2022-12-01T16:19:51.059Z,0.2
2022-12-01T16:24:51.324Z,0.2
2022-12-01T16:29:51.030Z,0.2
2022-12-01T16:34:51.030Z,0.2
2022-12-01T16:39:51.062Z,0.2
2022-12-01T16:44:51.282Z,0.2
2022-12-01T16:49:51.069Z,0.2
2022-12-01T16:54:51.298Z,0.2
2022-12-01T16:59:51.047Z,0.2
2022-12-01T17:04:51.179Z,0.2
2022-12-01T17:09:51.063Z,0.2
2022-12-01T17:14:51.280Z,0.2
2022-12-01T17:19:51.176Z,0.2
2022-12-01T17:24:51.232Z,0.2
2022-12-01T17:29:51.027Z,0.1
2022-12-01T17:34:51.222Z,0.1
2022-12-01T17:39:51.076Z,0.2
2022-12-01T17:44:51.296Z,0.2
2022-12-01T17:49:51.123Z,0.2
2022-12-01T17:54:51.296Z,0.2
2022-12-01T17:59:51.076Z,0.2
2022-12-01T18:04:51.343Z,0.2
2022-12-01T18:09:51.058Z,0.2
2022-12-01T18:14:51.421Z,0.2
2022-12-01T18:19:51.040Z,0.2
2022-12-01T18:24:51.157Z,0.2
2022-12-01T18:29:51.036Z,0.2
2022-12-01T18:34:51.326Z,0.2
2022-12-01T18:39:51.177Z,0.2
2022-12-01T18:44:51.354Z,0.2
2022-12-01T18:49:51.064Z,0.2
2022-12-01T18:54:51.253Z,0.2
2022-12-01T18:59:51.142Z,0.1
2022-12-01T19:04:51.389Z,0.2
2022-12-01T19:09:51.309Z,0.1
2022-12-01T19:14:51.285Z,0.2
2022-12-01T19:19:51.034Z,0.2
2022-12-01T19:24:51.138Z,0.2
2022-12-01T19:29:51.075Z,0.1
2022-12-01T19:34:51.211Z,0.2
2022-12-01T19:39:51.073Z,0.2
2022-12-01T19:44:51.250Z,0.3
2022-12-01T19:49:51.166Z,0.3
2022-12-01T19:54:51.223Z,0.2
2022-12-01T19:59:51.079Z,0.2
2022-12-01T20:04:51.575Z,0.2
2022-12-01T20:09:51.072Z,0.2
2022-12-01T20:14:51.631Z,0.1
2022-12-01T20:19:51.158Z,0.2
2022-12-01T20:24:51.229Z,0.2
2022-12-01T20:29:51.180Z,0.3
2022-12-01T20:34:51.331Z,0.3
2022-12-01T20:39:51.090Z,0.1
2022-12-01T20:44:51.306Z,0.1
2022-12-01T20:49:58.105Z,0.2
2022-12-01T20:54:51.344Z,0.2
2022-12-01T20:59:51.117Z,0.1
2022-12-01T21:04:57.820Z,0.2
2022-12-01T21:09:51.105Z,0.3
2022-12-01T21:14:51.326Z,0.2
2022-12-01T21:19:51.114Z,0.1
2022-12-01T21:24:51.522Z,0.2
2022-12-01T21:29:51.165Z,0.2
2022-12-01T21:34:51.342Z,0.1
2022-12-01T21:39:51.219Z,0.3
2022-12-01T21:44:51.288Z,0.2
2022-12-01T21:49:51.211Z,0.2
2022-12-01T21:54:51.420Z,0.2
2022-12-01T21:59:51.092Z,0.2
2022-12-01T22:04:51.433Z,0.2
2022-12-01T22:09:51.065Z,0.1
2022-12-01T22:14:51.466Z,0.2
2022-12-01T22:19:51.149Z,0.2
2022-12-01T22:24:51.386Z,0.2
2022-12-01T22:29:51.092Z,0.2
2022-12-01T22:34:51.320Z,0.2
2022-12-01T22:39:51.134Z,0.1
2022-12-01T22:44:51.314Z,0.2
2022-12-01T22:49:51.069Z,0.1
2022-12-01T22:54:51.349Z,0.3
2022-12-01T22:59:51.094Z,0.2
2022-12-01T23:04:51.406Z,0.2
2022-12-01T23:09:51.099Z,0.1
2022-12-01T23:14:51.405Z,0.2
2022-12-01T23:19:51.111Z,0.1
2022-12-01T23:24:51.183Z,0.2
2022-12-01T23:29:51.113Z,0.1
2022-12-01T23:34:58.574Z,0.2
2022-12-01T23:39:51.121Z,0.2
2022-12-01T23:44:51.258Z,0.2
2022-12-01T23:49:51.103Z,0.2
2022-12-01T23:54:51.319Z,0.2
2022-12-01T23:59:51.085Z,0.2
